Time;durP1;ratioP1;P1;durP2;ratioP2;P2;SDS_P1;SDS_P2;PMS_P1;PMS_P2;Temp;Humidity;BMP_temperature;BMP_pressure;BME280_temperature;BME280_humidity;BME280_pressure;Samples;Min_cycle;Max_cycle;Signal;HPM_P1;HPM_P2
2022/06/08 00:00:17;;;;;;;2.33;2.23;;;14.90;99.90;;;;;;5093693;28;20431;-58
2022/06/08 00:02:49;;;;;;;2.27;2.10;;;14.90;99.90;;;;;;5093532;28;20437;-58
2022/06/08 00:05:16;;;;;;;3.70;2.40;;;14.80;99.90;;;;;;5093043;28;20482;-59
2022/06/08 00:07:43;;;;;;;3.27;2.60;;;14.80;99.90;;;;;;5092927;28;20808;-58
2022/06/08 00:10:11;;;;;;;2.67;2.47;;;14.80;99.90;;;;;;5093145;28;20446;-58
2022/06/08 00:12:39;;;;;;;3.10;2.80;;;14.80;99.90;;;;;;5093285;28;20998;-58
2022/06/08 00:15:09;;;;;;;2.60;2.33;;;14.80;99.90;;;;;;5093210;28;20493;-58
2022/06/08 00:17:37;;;;;;;3.47;2.30;;;14.80;99.90;;;;;;5093057;28;20426;-58
2022/06/08 00:20:05;;;;;;;2.83;2.63;;;14.80;99.90;;;;;;5093294;28;20481;-58
2022/06/08 00:22:33;;;;;;;3.10;2.90;;;14.70;99.90;;;;;;5092827;28;20506;-58
2022/06/08 00:25:00;;;;;;;2.70;2.50;;;14.70;99.90;;;;;;5093897;28;20555;-58
2022/06/08 00:27:28;;;;;;;3.07;2.87;;;14.70;99.90;;;;;;5097257;28;20965;-58
2022/06/08 00:29:55;;;;;;;2.93;2.63;;;14.80;99.90;;;;;;5097337;28;20989;-58
2022/06/08 00:32:24;;;;;;;2.93;2.63;;;14.80;99.90;;;;;;5096950;28;20453;-58
2022/06/08 00:34:51;;;;;;;3.30;2.70;;;14.70;99.90;;;;;;5097109;28;20540;-58
2022/06/08 00:37:19;;;;;;;3.50;3.20;;;14.70;99.90;;;;;;5097030;28;20998;-58
2022/06/08 00:39:46;;;;;;;2.90;2.70;;;14.70;99.90;;;;;;5096824;28;20540;-58
2022/06/08 00:42:16;;;;;;;3.00;2.80;;;14.60;99.90;;;;;;5097119;28;20861;-58
2022/06/08 00:44:47;;;;;;;3.20;2.90;;;14.60;99.90;;;;;;5097170;28;20659;-57
2022/06/08 00:47:17;;;;;;;2.83;2.63;;;14.50;99.90;;;;;;5096821;28;20434;-58
2022/06/08 00:49:51;;;;;;;3.63;3.30;;;14.50;99.90;;;;;;5096885;28;20432;-58
2022/06/08 00:52:19;;;;;;;5.20;3.30;;;14.50;99.90;;;;;;5096398;28;20898;-58
2022/06/08 00:54:50;;;;;;;3.90;3.47;;;14.50;99.90;;;;;;5096613;28;20482;-58
2022/06/08 00:57:20;;;;;;;2.80;2.60;;;14.50;99.90;;;;;;5096467;28;20462;-58
2022/06/08 00:59:51;;;;;;;2.90;2.60;;;14.40;99.90;;;;;;5096619;28;20446;-58
2022/06/08 01:02:19;;;;;;;4.03;3.63;;;14.40;99.90;;;;;;5096622;28;20537;-58
2022/06/08 01:04:48;;;;;;;3.70;3.40;;;14.40;99.90;;;;;;5096039;28;20489;-58
2022/06/08 01:07:20;;;;;;;3.90;3.60;;;14.30;99.90;;;;;;5096345;28;20495;-58
2022/06/08 01:09:49;;;;;;;3.60;3.30;;;14.40;99.90;;;;;;5096375;28;20505;-58
2022/06/08 01:12:21;;;;;;;3.97;3.60;;;14.30;99.90;;;;;;5095874;28;20952;-58
2022/06/08 01:14:50;;;;;;;3.50;3.27;;;14.40;99.90;;;;;;5096240;28;20481;-58
2022/06/08 01:17:20;;;;;;;4.00;3.60;;;14.50;99.90;;;;;;5096446;28;20438;-57
2022/06/08 01:19:51;;;;;;;4.00;3.60;;;14.50;99.90;;;;;;5096314;28;20941;-59
2022/06/08 01:22:20;;;;;;;4.70;3.43;;;14.50;99.90;;;;;;5096209;28;20422;-58
2022/06/08 01:24:50;;;;;;;3.33;3.13;;;14.60;99.90;;;;;;5095978;28;20504;-58
2022/06/08 01:27:39;;;;;;;3.93;3.63;;;14.60;99.90;;;;;;5096366;28;20470;-58
2022/06/08 01:30:21;;;;;;;3.90;3.60;;;14.60;99.90;;;;;;5095739;28;20426;-58
2022/06/08 01:33:31;;;;;;;3.60;3.30;;;14.70;99.90;;;;;;5095746;28;20477;-58
2022/06/08 01:36:31;;;;;;;4.07;3.77;;;14.70;99.90;;;;;;5085731;28;20544;-58
2022/06/08 01:39:05;;;;;;;3.80;3.50;;;14.80;99.90;;;;;;5089159;28;20454;-58
2022/06/08 01:41:55;;;;;;;4.20;3.80;;;14.80;99.90;;;;;;5095721;28;20433;-58
2022/06/08 01:44:39;;;;;;;3.77;3.37;;;14.80;99.90;;;;;;5095976;28;20558;-58
2022/06/08 01:47:11;;;;;;;3.83;3.50;;;14.80;99.90;;;;;;5095809;28;20452;-58
2022/06/08 01:49:42;;;;;;;3.27;2.97;;;14.80;99.90;;;;;;5095507;28;20514;-58
2022/06/08 01:52:30;;;;;;;3.50;3.20;;;14.80;99.90;;;;;;5095678;28;20885;-58
2022/06/08 01:55:07;;;;;;;3.50;3.20;;;14.90;99.90;;;;;;5095608;28;20493;-58
2022/06/08 01:57:53;;;;;;;3.00;2.80;;;14.90;99.90;;;;;;5095202;28;20464;-58
2022/06/08 02:00:24;;;;;;;3.63;3.33;;;14.90;99.90;;;;;;5095746;28;20418;-58
2022/06/08 02:03:00;;;;;;;3.43;3.20;;;14.90;99.90;;;;;;5095708;28;20529;-58
2022/06/08 02:05:35;;;;;;;3.27;3.07;;;14.90;99.90;;;;;;5095227;28;20488;-59
2022/06/08 02:08:11;;;;;;;4.00;3.70;;;14.80;99.90;;;;;;5095211;28;20972;-59
2022/06/08 02:10:46;;;;;;;3.70;3.40;;;14.80;99.90;;;;;;5095227;28;20476;-59
2022/06/08 02:13:18;;;;;;;3.77;3.47;;;14.80;99.90;;;;;;5095020;28;20430;-59
2022/06/08 02:15:50;;;;;;;3.50;3.20;;;14.80;99.90;;;;;;5095049;28;20826;-58
2022/06/08 02:18:23;;;;;;;3.97;3.67;;;14.90;99.90;;;;;;5095181;28;20472;-59
2022/06/08 02:20:55;;;;;;;3.33;3.13;;;14.90;99.90;;;;;;5095190;28;20785;-59
2022/06/08 02:23:26;;;;;;;4.33;4.00;;;14.90;99.90;;;;;;5094751;28;20434;-59
2022/06/08 02:25:59;;;;;;;4.07;3.77;;;14.90;99.90;;;;;;5095031;28;20455;-59
2022/06/08 02:28:31;;;;;;;4.63;4.23;;;14.90;99.90;;;;;;5094987;28;20522;-59
2022/06/08 02:31:03;;;;;;;4.77;4.27;;;15.00;99.90;;;;;;5094832;28;20456;-59
2022/06/08 02:36:24;;;;;;;4.40;4.10;;;15.00;99.90;;;;;;5094648;28;20457;-59
2022/06/08 02:38:57;;;;;;;4.70;4.20;;;15.00;99.90;;;;;;5094450;28;20434;-59
2022/06/08 02:41:28;;;;;;;4.53;4.23;;;15.00;99.90;;;;;;5094687;28;20906;-59
2022/06/08 02:44:00;;;;;;;4.73;4.33;;;15.00;99.90;;;;;;5094514;28;20466;-57
2022/06/08 02:46:36;;;;;;;4.87;4.47;;;15.00;99.90;;;;;;5094710;28;20542;-59
2022/06/08 02:49:07;;;;;;;4.30;4.00;;;15.00;99.90;;;;;;5093519;28;20434;-59
2022/06/08 02:51:35;;;;;;;4.93;4.53;;;15.00;99.90;;;;;;5094580;28;20435;-59
2022/06/08 02:54:04;;;;;;;5.13;4.73;;;15.10;99.90;;;;;;5094125;28;20462;-57
2022/06/08 02:56:46;;;;;;;4.87;4.47;;;15.10;99.90;;;;;;5094092;28;20510;-57
2022/06/08 02:59:19;;;;;;;5.27;4.87;;;15.10;99.90;;;;;;5094539;28;20481;-59
2022/06/08 03:01:52;;;;;;;5.00;4.60;;;15.20;99.90;;;;;;5094492;28;20451;-59
2022/06/08 03:04:24;;;;;;;4.83;4.43;;;15.30;99.90;;;;;;5094557;28;20478;-59
2022/06/08 03:06:55;;;;;;;4.40;4.00;;;15.30;99.90;;;;;;5094469;28;20467;-59
2022/06/08 03:09:23;;;;;;;5.57;5.17;;;15.40;99.90;;;;;;5094551;28;20543;-58
2022/06/08 03:11:56;;;;;;;5.90;5.30;;;15.40;99.90;;;;;;5093738;28;20504;-58
2022/06/08 03:14:23;;;;;;;5.73;5.07;;;15.50;99.90;;;;;;5093925;28;20492;-59
2022/06/08 03:16:56;;;;;;;5.10;4.70;;;15.50;99.90;;;;;;5093726;28;20478;-58
2022/06/08 03:19:24;;;;;;;5.17;4.77;;;15.60;99.90;;;;;;5094053;28;20540;-58
2022/06/08 03:21:51;;;;;;;4.93;4.50;;;15.60;99.90;;;;;;5093672;28;20961;-58
2022/06/08 03:24:19;;;;;;;5.53;5.03;;;15.60;99.90;;;;;;5093930;28;20470;-59
2022/06/08 03:26:49;;;;;;;5.23;4.80;;;15.60;99.90;;;;;;5094073;28;20491;-59
2022/06/08 03:29:18;;;;;;;5.50;5.10;;;15.70;99.90;;;;;;5093924;28;20922;-59
2022/06/08 03:31:46;;;;;;;4.97;4.50;;;15.70;99.90;;;;;;5093770;28;20492;-58
2022/06/08 03:34:13;;;;;;;5.83;5.30;;;15.70;99.90;;;;;;5093537;28;20834;-59
2022/06/08 03:36:41;;;;;;;5.23;4.83;;;15.70;99.90;;;;;;5093418;28;20887;-59
2022/06/08 03:39:08;;;;;;;7.07;5.03;;;15.70;99.90;;;;;;5093869;28;20438;-59
2022/06/08 03:41:36;;;;;;;5.43;4.93;;;15.70;99.90;;;;;;5093461;28;20481;-58
2022/06/08 03:44:03;;;;;;;4.47;4.10;;;15.60;99.90;;;;;;5094218;28;20536;-59
2022/06/08 03:46:36;;;;;;;5.43;5.03;;;15.70;99.90;;;;;;5093199;28;20434;-58
2022/06/08 03:49:04;;;;;;;6.20;5.40;;;15.70;99.90;;;;;;5093305;28;20427;-59
2022/06/08 03:51:32;;;;;;;6.17;5.67;;;15.70;99.90;;;;;;5093561;28;20506;-59
2022/06/08 03:54:04;;;;;;;5.57;5.10;;;15.70;99.90;;;;;;5093617;28;21094;-59
2022/06/08 03:56:34;;;;;;;5.97;5.57;;;15.80;99.90;;;;;;5093282;28;20475;-59
2022/06/08 03:59:02;;;;;;;5.50;5.00;;;15.80;99.90;;;;;;5093262;28;20803;-58
2022/06/08 04:01:31;;;;;;;8.17;4.83;;;15.80;99.90;;;;;;5092938;28;20451;-59
2022/06/08 04:03:59;;;;;;;5.87;5.37;;;15.90;99.90;;;;;;5093159;28;20462;-59
2022/06/08 04:09:51;;;;;;;5.90;5.30;;;15.90;99.90;;;;;;5095738;27;20570;-59
2022/06/08 04:12:22;;;;;;;6.10;5.40;;;15.90;99.90;;;;;;5089350;28;20946;-58
2022/06/08 04:14:50;;;;;;;8.90;5.73;;;15.90;99.90;;;;;;5087299;28;20561;-58
2022/06/08 04:17:18;;;;;;;6.23;5.63;;;16.00;99.90;;;;;;5082787;28;20547;-57
2022/06/08 04:19:47;;;;;;;5.80;4.63;;;16.10;99.90;;;;;;5086141;28;20558;-58
2022/06/08 04:22:15;;;;;;;6.00;5.30;;;16.20;99.90;;;;;;5076264;28;20566;-58
2022/06/08 04:24:43;;;;;;;9.40;5.53;;;16.50;99.90;;;;;;5076236;28;20490;-58
2022/06/08 04:27:12;;;;;;;5.90;5.37;;;16.70;99.90;;;;;;5076008;28;20464;-59
2022/06/08 04:29:40;;;;;;;7.63;5.80;;;17.00;99.90;;;;;;5075539;28;20483;-58
2022/06/08 04:32:10;;;;;;;6.53;6.03;;;17.30;99.90;;;;;;5076201;28;20506;-58
2022/06/08 04:34:38;;;;;;;5.10;4.70;;;17.70;99.90;;;;;;5087637;28;20520;-59
2022/06/08 04:37:06;;;;;;;6.30;5.73;;;17.90;99.90;;;;;;5089114;28;20458;-58
2022/06/08 04:39:33;;;;;;;6.00;5.13;;;18.10;99.90;;;;;;5089764;28;20443;-58
2022/06/08 04:42:01;;;;;;;6.83;5.73;;;18.10;99.90;;;;;;5088728;28;20892;-57
2022/06/08 04:44:29;;;;;;;7.43;6.33;;;18.00;99.90;;;;;;5082878;28;20912;-57
2022/06/08 04:46:57;;;;;;;8.27;7.37;;;17.90;99.90;;;;;;5081268;28;20512;-57
2022/06/08 04:49:24;;;;;;;6.97;6.27;;;17.80;99.90;;;;;;5089097;28;20564;-59
2022/06/08 04:51:51;;;;;;;7.90;7.20;;;17.70;99.90;;;;;;5086252;28;20465;-57
2022/06/08 04:54:18;;;;;;;7.73;7.13;;;17.70;99.90;;;;;;5071173;28;20539;-58
2022/06/08 04:56:46;;;;;;;7.40;6.70;;;17.70;99.90;;;;;;5086200;28;20462;-59
2022/06/08 04:59:13;;;;;;;7.67;6.83;;;17.70;99.90;;;;;;5089286;28;20442;-58
2022/06/08 05:01:42;;;;;;;7.60;6.90;;;17.70;99.90;;;;;;5076727;28;20500;-59
2022/06/08 05:04:09;;;;;;;7.00;6.40;;;17.70;99.90;;;;;;5084647;28;20490;-58
2022/06/08 05:06:36;;;;;;;8.37;7.57;;;17.70;99.90;;;;;;5073175;28;20458;-59
2022/06/08 05:09:04;;;;;;;8.80;8.00;;;17.70;99.90;;;;;;5075844;28;20620;-59
2022/06/08 05:11:31;;;;;;;9.27;8.47;;;17.60;99.90;;;;;;5084856;22;20529;-61
2022/06/08 05:13:59;;;;;;;10.77;9.80;;;17.70;99.90;;;;;;5055373;28;20973;-60
2022/06/08 05:16:26;;;;;;;11.20;10.10;;;17.70;99.90;;;;;;5055853;28;20676;-62
2022/06/08 05:18:55;;;;;;;10.40;9.50;;;17.80;99.90;;;;;;5054428;28;20947;-60
2022/06/08 05:21:22;;;;;;;10.47;9.50;;;17.80;99.90;;;;;;5038016;28;20551;-59
2022/06/08 05:23:50;;;;;;;11.27;10.17;;;17.80;99.90;;;;;;5037185;28;20467;-61
2022/06/08 05:26:18;;;;;;;11.93;10.87;;;17.90;99.90;;;;;;5037556;28;20464;-60
2022/06/08 05:28:45;;;;;;;10.43;9.50;;;17.90;99.90;;;;;;5038075;28;21055;-59
2022/06/08 05:31:12;;;;;;;11.70;10.60;;;18.00;99.90;;;;;;5037342;28;21017;-59
2022/06/08 05:33:40;;;;;;;12.03;10.70;;;18.10;99.90;;;;;;5034970;28;20574;-61
2022/06/08 05:36:10;;;;;;;11.73;10.60;;;18.20;99.90;;;;;;5035724;28;20495;-61
2022/06/08 05:38:37;;;;;;;11.37;10.37;;;18.30;99.90;;;;;;5036260;28;20515;-60
2022/06/08 05:41:04;;;;;;;10.77;9.63;;;18.40;99.90;;;;;;5036145;28;20507;-61
2022/06/08 05:43:32;;;;;;;10.37;9.57;;;18.50;99.90;;;;;;5034812;28;20993;-63
2022/06/08 05:45:59;;;;;;;12.87;11.53;;;18.60;99.90;;;;;;5035677;28;20868;-61
2022/06/08 05:48:27;;;;;;;11.93;10.77;;;18.60;99.90;;;;;;5035354;28;20480;-61
2022/06/08 05:50:55;;;;;;;11.67;10.67;;;18.50;99.90;;;;;;5034911;28;20499;-60
2022/06/08 05:53:23;;;;;;;11.43;10.23;;;18.40;99.90;;;;;;5035184;28;20452;-60
2022/06/08 05:55:51;;;;;;;12.07;11.00;;;18.20;99.90;;;;;;5035354;28;20449;-61
2022/06/08 05:58:19;;;;;;;11.83;10.60;;;18.10;99.90;;;;;;5032364;28;21071;-62
2022/06/08 06:00:46;;;;;;;11.70;10.57;;;18.00;99.90;;;;;;5034188;28;20485;-60
2022/06/08 06:03:13;;;;;;;10.80;9.70;;;18.00;99.90;;;;;;5034245;28;20495;-61
2022/06/08 06:05:41;;;;;;;10.13;8.40;;;18.10;99.90;;;;;;5034201;28;20522;-61
2022/06/08 06:08:10;;;;;;;10.00;9.03;;;18.20;99.90;;;;;;5033923;28;20465;-62
2022/06/08 06:10:41;;;;;;;10.10;9.20;;;18.30;99.90;;;;;;5034923;28;20536;-61
2022/06/08 06:13:09;;;;;;;8.97;7.93;;;18.40;99.90;;;;;;5033424;28;20488;-62
2022/06/08 06:15:37;;;;;;;7.77;7.00;;;18.40;99.90;;;;;;5029844;28;20963;-59
2022/06/08 06:18:04;;;;;;;10.07;7.57;;;18.40;99.90;;;;;;5034101;28;20467;-61
2022/06/08 06:20:32;;;;;;;8.13;7.20;;;18.40;99.90;;;;;;5032613;28;20579;-61
2022/06/08 06:23:00;;;;;;;9.90;9.00;;;18.40;99.90;;;;;;5033206;28;20526;-60
2022/06/08 06:25:27;;;;;;;7.80;7.10;;;18.40;99.90;;;;;;5032826;28;20531;-61
2022/06/08 06:27:56;;;;;;;6.50;5.47;;;18.40;99.90;;;;;;5034055;28;20460;-61
2022/06/08 06:30:23;;;;;;;6.53;6.03;;;18.50;99.90;;;;;;5033602;28;20576;-60
2022/06/08 06:32:51;;;;;;;6.80;6.30;;;18.60;99.90;;;;;;5032187;28;20464;-62
2022/06/08 06:35:21;;;;;;;6.83;6.27;;;18.70;99.90;;;;;;5017960;28;20493;-61
2022/06/08 06:37:49;;;;;;;6.40;5.90;;;18.80;99.90;;;;;;5028340;28;20471;-61
2022/06/08 06:40:17;;;;;;;5.70;5.20;;;18.90;99.90;;;;;;5033895;28;20475;-61
2022/06/08 06:42:45;;;;;;;6.83;6.10;;;18.90;99.90;;;;;;5033693;28;20475;-61
2022/06/08 06:45:14;;;;;;;6.33;5.83;;;18.90;99.90;;;;;;5032519;28;20538;-61
2022/06/08 06:47:42;;;;;;;6.20;5.70;;;18.90;99.90;;;;;;5032849;28;20470;-61
2022/06/08 06:50:13;;;;;;;5.47;4.90;;;18.90;99.90;;;;;;5033571;28;20550;-61
2022/06/08 06:52:40;;;;;;;5.93;5.40;;;19.10;99.90;;;;;;5033193;28;20479;-61
2022/06/08 06:55:08;;;;;;;6.27;5.20;;;19.30;99.80;;;;;;5017258;28;20515;-61
2022/06/08 06:57:36;;;;;;;5.30;4.80;;;19.40;99.80;;;;;;5014475;28;20522;-61
2022/06/08 07:00:05;;;;;;;6.20;5.63;;;19.60;99.10;;;;;;5013825;28;20444;-62
2022/06/08 07:02:33;;;;;;;6.37;5.87;;;19.80;98.60;;;;;;5028281;28;20441;-60
2022/06/08 07:05:00;;;;;;;6.50;5.90;;;20.00;98.00;;;;;;5033861;28;20514;-62
2022/06/08 07:07:28;;;;;;;6.17;5.30;;;20.30;97.00;;;;;;5030806;28;20849;-61
2022/06/08 07:09:55;;;;;;;5.87;5.27;;;20.50;96.10;;;;;;5021922;28;20543;-62
2022/06/08 07:12:22;;;;;;;6.00;5.40;;;20.80;95.40;;;;;;5033400;28;20530;-62
2022/06/08 07:14:50;;;;;;;6.73;5.93;;;21.10;94.10;;;;;;5033637;28;20447;-62
2022/06/08 07:17:17;;;;;;;7.57;6.03;;;21.20;93.30;;;;;;5032873;28;20518;-61
2022/06/08 07:19:46;;;;;;;5.03;4.53;;;21.60;92.50;;;;;;5033191;28;20452;-61
2022/06/08 07:22:13;;;;;;;11.60;6.33;;;21.90;91.30;;;;;;5033516;28;20471;-61
2022/06/08 07:24:40;;;;;;;6.27;5.77;;;22.20;90.10;;;;;;5033480;28;21012;-61
2022/06/08 07:27:07;;;;;;;7.37;6.20;;;22.40;86.80;;;;;;5033156;28;20943;-62
2022/06/08 07:29:35;;;;;;;6.57;5.97;;;22.40;84.50;;;;;;5032213;28;21068;-62
2022/06/08 07:32:03;;;;;;;6.00;5.50;;;22.40;83.80;;;;;;5033271;28;20468;-62
2022/06/08 07:34:30;;;;;;;6.80;6.10;;;22.40;82.70;;;;;;5033173;28;20533;-63
2022/06/08 07:37:00;;;;;;;5.97;5.47;;;22.30;82.10;;;;;;5032485;28;20453;-63
2022/06/08 07:39:27;;;;;;;6.17;5.67;;;22.20;82.20;;;;;;5032954;28;20441;-62
2022/06/08 07:41:55;;;;;;;6.30;5.70;;;22.20;81.70;;;;;;5033346;28;20480;-61
2022/06/08 07:44:23;;;;;;;5.10;4.67;;;22.40;80.80;;;;;;5032121;28;20449;-62
2022/06/08 07:46:51;;;;;;;6.33;5.10;;;22.60;79.10;;;;;;5032779;28;20506;-61
2022/06/08 07:52:14;;;;;;;4.90;4.40;;;22.70;75.30;;;;;;5011939;28;20453;-62
2022/06/08 07:54:42;;;;;;;5.00;4.57;;;22.90;73.50;;;;;;5033309;28;20435;-64
2022/06/08 07:57:14;;;;;;;5.53;5.13;;;22.90;71.60;;;;;;5032796;28;20511;-62
2022/06/08 07:59:41;;;;;;;4.93;4.57;;;22.90;70.30;;;;;;5033419;28;20905;-62
2022/06/08 08:02:09;;;;;;;5.10;4.00;;;22.90;70.00;;;;;;5032734;28;20456;-63
2022/06/08 08:04:36;;;;;;;7.50;4.00;;;23.20;69.10;;;;;;5036067;28;20448;-61
2022/06/08 08:07:05;;;;;;;4.33;3.93;;;23.50;67.20;;;;;;5033827;28;20477;-62
2022/06/08 08:09:34;;;;;;;4.80;4.40;;;23.80;65.50;;;;;;5033098;28;20476;-63
2022/06/08 08:12:03;;;;;;;4.53;4.13;;;24.00;63.30;;;;;;5032335;28;20487;-62
2022/06/08 08:14:33;;;;;;;3.73;3.53;;;24.10;62.10;;;;;;5033114;28;20448;-61
2022/06/08 08:17:01;;;;;;;4.10;3.73;;;24.20;61.10;;;;;;5033278;28;20531;-62
2022/06/08 08:19:28;;;;;;;3.93;3.10;;;24.10;60.30;;;;;;5032452;28;20437;-63
2022/06/08 08:21:56;;;;;;;5.20;3.43;;;23.90;59.60;;;;;;5031149;28;20496;-63
2022/06/08 08:24:23;;;;;;;3.70;3.40;;;23.80;59.30;;;;;;5033556;28;20475;-62
2022/06/08 08:26:52;;;;;;;6.07;3.73;;;23.70;59.30;;;;;;5032962;28;20458;-63
2022/06/08 08:29:20;;;;;;;3.70;3.40;;;23.70;59.30;;;;;;5031612;28;20571;-62
2022/06/08 08:31:48;;;;;;;3.00;2.80;;;23.80;58.80;;;;;;5031457;28;20522;-62
2022/06/08 08:34:15;;;;;;;3.10;2.73;;;23.80;58.20;;;;;;5032732;28;20472;-62
2022/06/08 08:36:43;;;;;;;3.60;3.30;;;23.80;57.90;;;;;;5032440;28;20437;-62
2022/06/08 08:39:12;;;;;;;5.30;3.30;;;23.90;57.60;;;;;;5031784;28;20469;-62
2022/06/08 08:44:39;;;;;;;3.80;3.40;;;23.70;57.30;;;;;;5032963;28;20412;-62
2022/06/08 08:47:23;;;;;;;5.10;3.00;;;23.50;57.50;;;;;;5032756;28;20491;-63
2022/06/08 08:49:56;;;;;;;4.40;3.40;;;23.50;57.80;;;;;;5014100;28;20512;-62
2022/06/08 08:52:33;;;;;;;5.30;4.10;;;23.60;57.80;;;;;;5013791;28;20476;-61
2022/06/08 08:55:19;;;;;;;3.57;3.23;;;23.70;57.50;;;;;;5013953;28;20430;-62
2022/06/08 08:57:55;;;;;;;4.00;3.20;;;23.90;56.70;;;;;;5035815;28;20482;-62
2022/06/08 09:00:31;;;;;;;4.93;3.10;;;23.90;56.40;;;;;;5035224;28;20896;-63
2022/06/08 09:03:16;;;;;;;4.00;3.10;;;23.90;56.30;;;;;;5016362;28;20439;-62
2022/06/08 09:05:48;;;;;;;4.70;2.77;;;23.90;56.20;;;;;;5016171;28;20807;-62
2022/06/08 09:08:17;;;;;;;2.70;2.47;;;24.00;55.90;;;;;;5016652;28;20441;-62
2022/06/08 09:10:45;;;;;;;2.90;2.70;;;24.20;55.40;;;;;;5033378;28;20500;-61
2022/06/08 09:13:17;;;;;;;3.63;2.80;;;24.50;54.80;;;;;;5036073;28;20514;-61
2022/06/08 09:15:49;;;;;;;3.40;2.70;;;24.70;54.20;;;;;;5035439;28;20457;-62
2022/06/08 09:18:33;;;;;;;2.63;2.40;;;24.90;53.70;;;;;;5033954;28;20443;-62
2022/06/08 09:21:03;;;;;;;4.00;3.30;;;24.80;53.60;;;;;;5035438;28;20503;-62
2022/06/08 09:23:42;;;;;;;3.90;3.07;;;24.70;53.90;;;;;;5035837;28;20491;-63
2022/06/08 09:26:15;;;;;;;5.87;3.73;;;24.70;54.00;;;;;;5034940;28;20499;-61
2022/06/08 09:28:43;;;;;;;4.10;3.07;;;24.80;53.90;;;;;;5035659;28;20452;-61
2022/06/08 09:31:28;;;;;;;3.33;3.00;;;25.00;53.70;;;;;;5035513;28;20510;-62
2022/06/08 09:34:07;;;;;;;3.17;2.87;;;25.30;53.00;;;;;;5034274;28;20441;-62
2022/06/08 09:36:34;;;;;;;2.97;2.60;;;25.30;52.70;;;;;;5034856;28;20905;-62
2022/06/08 09:39:02;;;;;;;3.53;3.23;;;25.50;52.40;;;;;;5034793;28;20929;-60
2022/06/08 09:41:34;;;;;;;3.43;2.90;;;25.80;51.80;;;;;;5035696;28;20464;-61
2022/06/08 09:44:23;;;;;;;2.80;2.60;;;26.10;51.10;;;;;;5038850;28;20977;-62
2022/06/08 09:53:04;;;;;;;5.93;3.17;;;26.30;49.60;;;;;;5039063;28;20917;-62
2022/06/08 09:55:47;;;;;;;2.90;2.70;;;26.20;49.50;;;;;;5033726;28;20441;-63
2022/06/08 09:58:44;;;;;;;2.70;2.50;;;26.30;49.30;;;;;;5042270;28;20539;-62
2022/06/08 10:01:18;;;;;;;3.17;2.97;;;26.20;48.90;;;;;;5041685;28;20453;-63
2022/06/08 10:04:21;;;;;;;2.57;2.37;;;25.90;49.30;;;;;;5036592;28;20425;-62
2022/06/08 10:06:57;;;;;;;4.60;3.33;;;25.50;49.80;;;;;;5036052;28;20503;-61
2022/06/08 10:09:32;;;;;;;3.50;3.20;;;25.20;49.90;;;;;;5036935;28;20462;-61
2022/06/08 10:12:08;;;;;;;3.30;3.00;;;25.20;50.10;;;;;;5035981;28;20526;-61
2022/06/08 10:14:43;;;;;;;41.73;7.10;;;25.30;50.00;;;;;;5034893;28;20444;-62
2022/06/08 10:17:18;;;;;;;5.73;3.30;;;25.30;49.70;;;;;;5034560;28;20508;-64
2022/06/08 10:19:57;;;;;;;2.53;2.33;;;25.30;49.70;;;;;;5034747;28;20802;-62
2022/06/08 10:22:28;;;;;;;3.40;3.07;;;25.50;49.20;;;;;;5033513;28;20465;-62
2022/06/08 10:25:01;;;;;;;3.43;3.13;;;25.40;49.20;;;;;;5034117;28;20436;-61
2022/06/08 10:27:33;;;;;;;3.07;2.73;;;25.70;49.30;;;;;;5034447;28;20456;-60
2022/06/08 10:30:11;;;;;;;3.00;2.80;;;25.90;48.60;;;;;;5034678;28;20527;-62
2022/06/08 10:32:43;;;;;;;3.00;2.77;;;25.90;48.60;;;;;;5034061;28;20449;-60
2022/06/08 10:35:20;;;;;;;3.47;2.37;;;25.80;48.60;;;;;;5032646;28;20846;-61
2022/06/08 10:37:48;;;;;;;2.40;2.20;;;25.70;48.20;;;;;;5034196;28;20452;-62
2022/06/08 10:40:20;;;;;;;4.60;3.80;;;25.60;48.50;;;;;;5032908;28;20994;-61
2022/06/08 10:42:50;;;;;;;2.93;2.33;;;25.70;48.50;;;;;;5033669;28;20429;-62
2022/06/08 10:45:47;;;;;;;4.20;3.50;;;25.70;48.40;;;;;;5034085;28;20479;-62
2022/06/08 10:48:46;;;;;;;3.60;2.30;;;26.00;48.20;;;;;;5032869;28;20488;-62
2022/06/08 10:51:32;;;;;;;2.10;2.00;;;26.40;47.40;;;;;;5028717;28;20562;-62
2022/06/08 10:56:51;;;;;;;2.60;2.03;;;27.00;46.00;;;;;;5033681;28;20736;-62
2022/06/08 10:59:21;;;;;;;2.80;2.20;;;26.80;45.80;;;;;;5033102;28;20518;-62
2022/06/08 11:02:00;;;;;;;3.40;3.10;;;26.70;45.70;;;;;;5033780;28;20493;-62
2022/06/08 11:04:43;;;;;;;3.20;2.87;;;26.50;45.90;;;;;;5033248;28;20460;-63
2022/06/08 11:07:13;;;;;;;3.80;2.60;;;26.20;46.30;;;;;;5033828;28;20793;-61
2022/06/08 11:09:54;;;;;;;5.40;3.27;;;26.10;46.50;;;;;;5032735;28;20452;-62
2022/06/08 11:12:59;;;;;;;2.30;2.10;;;26.00;46.80;;;;;;5079423;22;20490;-56
2022/06/08 11:15:48;;;;;;;4.03;2.90;;;26.00;46.80;;;;;;5070637;28;20542;-57
2022/06/08 11:18:41;;;;;;;3.60;2.90;;;26.00;46.80;;;;;;5052544;28;20523;-56
2022/06/08 11:21:31;;;;;;;12.47;3.70;;;25.90;46.60;;;;;;5049744;28;20460;-55
2022/06/08 11:24:03;;;;;;;3.13;2.50;;;26.00;46.40;;;;;;5052780;28;20462;-57
2022/06/08 11:27:13;;;;;;;2.60;2.40;;;25.90;46.40;;;;;;5052883;28;20428;-56
2022/06/08 11:29:47;;;;;;;2.70;2.30;;;25.80;46.70;;;;;;5066012;28;20453;-56
2022/06/08 11:32:37;;;;;;;2.70;2.50;;;25.80;46.70;;;;;;5083472;28;20539;-54
2022/06/08 11:35:26;;;;;;;2.40;2.20;;;25.90;46.00;;;;;;5072494;28;20451;-56
2022/06/08 11:38:03;;;;;;;2.70;2.40;;;26.00;45.80;;;;;;5073032;28;20456;-57
2022/06/08 11:40:34;;;;;;;2.60;2.27;;;26.30;45.60;;;;;;5073605;28;20433;-59
2022/06/08 11:43:27;;;;;;;2.60;2.40;;;26.70;45.00;;;;;;5072225;28;20469;-58
2022/06/08 11:45:57;;;;;;;2.40;2.20;;;26.60;44.70;;;;;;5072731;28;20475;-59
2022/06/08 11:48:26;;;;;;;2.80;2.40;;;26.60;44.60;;;;;;5071673;28;20966;-57
2022/06/08 11:50:55;;;;;;;2.80;2.60;;;26.50;44.60;;;;;;5072772;28;20990;-61
2022/06/08 11:53:28;;;;;;;2.67;2.47;;;26.20;44.70;;;;;;5072891;28;20443;-60
2022/06/08 11:56:08;;;;;;;2.90;2.70;;;26.20;45.10;;;;;;5073750;28;20437;-61
2022/06/08 11:58:37;;;;;;;2.43;2.23;;;26.10;45.30;;;;;;5072976;28;20438;-60
2022/06/08 12:01:09;;;;;;;2.73;2.53;;;25.90;45.50;;;;;;5073480;28;20904;-58
2022/06/08 12:03:43;;;;;;;3.43;2.10;;;26.40;45.00;;;;;;5074048;28;20489;-61
2022/06/08 12:06:20;;;;;;;2.30;2.10;;;27.10;43.20;;;;;;5072412;28;20439;-59
2022/06/08 12:08:54;;;;;;;4.07;3.30;;;27.20;42.70;;;;;;5073718;28;20427;-62
2022/06/08 12:11:25;;;;;;;3.43;3.13;;;26.90;43.00;;;;;;5073013;28;20483;-61
2022/06/08 12:13:55;;;;;;;2.73;2.40;;;26.60;43.40;;;;;;5071971;28;20455;-61
2022/06/08 12:16:26;;;;;;;2.80;2.30;;;26.50;43.60;;;;;;5072594;28;20500;-59
2022/06/08 12:18:58;;;;;;;3.10;2.40;;;26.50;43.90;;;;;;5073094;28;20436;-60
2022/06/08 12:21:29;;;;;;;2.77;2.47;;;26.50;44.10;;;;;;5072148;28;20520;-61
2022/06/08 12:24:01;;;;;;;3.77;3.47;;;26.60;43.70;;;;;;5071354;28;20459;-61
2022/06/08 12:26:40;;;;;;;2.40;2.10;;;26.80;43.20;;;;;;5073078;28;20474;-61
2022/06/08 12:29:28;;;;;;;2.20;2.00;;;27.60;42.30;;;;;;5073024;28;20422;-60
2022/06/08 12:32:21;;;;;;;2.20;2.00;;;29.00;40.40;;;;;;5065683;28;20514;-60
2022/06/08 12:34:51;;;;;;;2.50;2.30;;;30.20;38.30;;;;;;5075963;28;20423;-59
2022/06/08 12:37:41;;;;;;;2.77;1.97;;;30.40;37.60;;;;;;5076063;28;20459;-59
2022/06/08 12:40:35;;;;;;;5.30;3.40;;;29.70;37.60;;;;;;5073742;28;20538;-61
2022/06/08 12:43:18;;;;;;;1.97;1.87;;;28.70;38.70;;;;;;5052469;28;20466;-61
2022/06/08 12:46:04;;;;;;;2.37;2.00;;;27.80;40.10;;;;;;5076722;28;20930;-58
2022/06/08 12:48:44;;;;;;;2.70;2.50;;;27.20;41.30;;;;;;5077650;28;20455;-60
2022/06/08 12:51:37;;;;;;;4.10;3.23;;;26.80;42.10;;;;;;5076799;28;20467;-60
2022/06/08 12:54:11;;;;;;;2.87;2.67;;;26.70;42.80;;;;;;5075260;28;20985;-60
2022/06/08 12:56:39;;;;;;;2.07;1.93;;;26.50;43.30;;;;;;5076354;28;20426;-59
2022/06/08 12:59:08;;;;;;;2.93;2.50;;;26.40;43.50;;;;;;5076121;28;20446;-60
2022/06/08 13:01:35;;;;;;;2.50;2.30;;;26.20;43.70;;;;;;5076049;28;20498;-60
2022/06/08 13:04:03;;;;;;;3.40;2.60;;;26.10;43.80;;;;;;5076525;28;20441;-59
2022/06/08 13:06:32;;;;;;;2.50;2.30;;;26.00;44.00;;;;;;5075884;28;20529;-60
2022/06/08 13:08:59;;;;;;;3.40;2.60;;;25.80;44.30;;;;;;5075660;28;20442;-60
2022/06/08 13:11:27;;;;;;;2.40;2.20;;;25.70;44.50;;;;;;5075778;28;20500;-58
2022/06/08 13:13:56;;;;;;;2.80;2.60;;;25.50;44.70;;;;;;5075729;28;20550;-59
2022/06/08 13:16:27;;;;;;;2.00;1.80;;;25.30;45.10;;;;;;5075964;28;20442;-58
2022/06/08 13:18:55;;;;;;;2.03;1.93;;;25.20;45.50;;;;;;5075582;28;20439;-59
2022/06/08 13:21:23;;;;;;;4.80;2.53;;;25.10;45.50;;;;;;5075300;28;20465;-61
2022/06/08 13:23:51;;;;;;;3.50;2.50;;;25.00;45.90;;;;;;5075541;28;20532;-58
2022/06/08 13:26:20;;;;;;;3.10;2.20;;;24.70;46.00;;;;;;5075141;28;20466;-58
2022/06/08 13:28:47;;;;;;;5.83;3.20;;;24.60;46.30;;;;;;5075805;28;20815;-59
2022/06/08 13:31:22;;;;;;;4.77;2.20;;;24.50;46.60;;;;;;5075568;28;20563;-60